Time;durP1;ratioP1;P1;durP2;ratioP2;P2;SDS_P1;SDS_P2;PMS_P1;PMS_P2;Temp;Humidity;BMP_temperature;BMP_pressure;BME280_temperature;BME280_humidity;BME280_pressure;Samples;Min_cycle;Max_cycle;Signal;HPM_P1;HPM_P2
2022/02/08 00:01:19;;;;;;;16.17;5.00;;;5.40;99.90;;;;;;5052153;28;20209;-45
2022/02/08 00:03:46;;;;;;;14.83;4.10;;;5.40;99.90;;;;;;5049407;28;21058;-44
2022/02/08 00:06:27;;;;;;;16.30;4.40;;;5.30;99.90;;;;;;5024425;28;20476;-43
2022/02/08 00:08:54;;;;;;;18.63;4.75;;;5.30;99.90;;;;;;5052359;28;20277;-44
2022/02/08 00:11:21;;;;;;;13.82;4.30;;;5.20;99.90;;;;;;5053017;28;20661;-44
2022/02/08 00:13:49;;;;;;;18.57;3.90;;;5.20;99.90;;;;;;5052859;28;20646;-43
2022/02/08 00:16:15;;;;;;;20.00;4.07;;;5.20;99.90;;;;;;5052876;28;20466;-43
2022/02/08 00:18:42;;;;;;;20.30;4.25;;;5.20;99.90;;;;;;5052481;28;20200;-45
2022/02/08 00:21:09;;;;;;;20.73;5.70;;;5.20;99.90;;;;;;5039219;28;20201;-44
2022/02/08 00:23:35;;;;;;;20.40;4.32;;;5.20;99.90;;;;;;5039787;28;20212;-44
2022/02/08 00:26:02;;;;;;;17.10;4.00;;;5.20;99.90;;;;;;5032934;28;20303;-46
2022/02/08 00:28:29;;;;;;;17.80;4.27;;;5.20;99.90;;;;;;5015426;28;20486;-44
2022/02/08 00:30:57;;;;;;;13.05;3.75;;;5.20;99.90;;;;;;5029057;28;20409;-43
2022/02/08 00:33:24;;;;;;;9.13;3.30;;;5.20;99.90;;;;;;5032312;28;20320;-43
2022/02/08 00:35:50;;;;;;;17.37;4.40;;;5.30;99.90;;;;;;5014608;28;20462;-45
2022/02/08 00:38:18;;;;;;;10.90;3.73;;;5.30;99.90;;;;;;5033182;28;20438;-45
2022/02/08 00:40:47;;;;;;;17.25;4.40;;;5.40;99.90;;;;;;5037806;28;20455;-43
2022/02/08 00:43:20;;;;;;;15.65;4.75;;;5.40;99.90;;;;;;5032350;28;20195;-44
2022/02/08 00:45:52;;;;;;;8.30;4.17;;;5.40;99.90;;;;;;5027136;28;20225;-44
2022/02/08 00:48:28;;;;;;;15.55;4.25;;;5.40;99.90;;;;;;5052025;28;20556;-45
2022/02/08 00:50:55;;;;;;;21.00;3.65;;;5.50;99.90;;;;;;5034217;28;20204;-44
2022/02/08 00:53:22;;;;;;;14.70;3.35;;;5.50;99.90;;;;;;5050876;28;20288;-44
2022/02/08 00:55:49;;;;;;;10.77;3.55;;;5.60;99.90;;;;;;5044761;28;20703;-45
2022/02/08 00:58:16;;;;;;;22.00;5.20;;;5.60;99.90;;;;;;5050448;28;20193;-44
2022/02/08 01:00:42;;;;;;;17.27;3.40;;;5.60;99.90;;;;;;5051512;28;20493;-44
2022/02/08 01:03:09;;;;;;;11.13;3.27;;;5.80;99.90;;;;;;5050626;28;20448;-45
2022/02/08 01:05:42;;;;;;;12.73;3.47;;;5.70;99.90;;;;;;5033955;28;20425;-44
2022/02/08 01:08:09;;;;;;;13.47;3.37;;;5.70;99.90;;;;;;5051869;28;20521;-46
2022/02/08 01:10:38;;;;;;;11.40;3.40;;;5.70;99.90;;;;;;5046138;28;20518;-44
2022/02/08 01:13:05;;;;;;;9.43;3.20;;;5.70;99.90;;;;;;5039978;28;20422;-44
2022/02/08 01:15:32;;;;;;;17.17;5.60;;;5.80;99.90;;;;;;5052026;28;20471;-45
2022/02/08 01:17:59;;;;;;;11.67;3.27;;;5.80;99.90;;;;;;5051738;28;20443;-43
2022/02/08 01:20:32;;;;;;;13.07;4.07;;;5.80;99.90;;;;;;5050081;28;20456;-45
2022/02/08 01:23:04;;;;;;;18.40;3.63;;;5.80;99.90;;;;;;5051640;28;20871;-44
2022/02/08 01:25:36;;;;;;;10.63;3.10;;;5.80;99.90;;;;;;5051796;28;20426;-44
2022/02/08 01:28:13;;;;;;;14.70;4.83;;;5.80;99.90;;;;;;5037119;28;20532;-44
2022/02/08 01:30:57;;;;;;;13.73;5.03;;;5.80;99.90;;;;;;5039075;28;20858;-46
2022/02/08 01:36:28;;;;;;;15.60;4.03;;;5.90;99.90;;;;;;5050689;28;20537;-46
2022/02/08 01:39:04;;;;;;;7.47;3.30;;;5.80;99.90;;;;;;5050254;28;20417;-46
2022/02/08 01:41:44;;;;;;;15.45;3.53;;;5.80;99.90;;;;;;5050569;28;20454;-45
2022/02/08 01:44:20;;;;;;;12.50;3.47;;;5.80;99.90;;;;;;5040506;28;20291;-45
2022/02/08 01:46:59;;;;;;;14.00;3.10;;;5.80;99.90;;;;;;5022575;28;20577;-45
2022/02/08 01:49:34;;;;;;;11.63;2.53;;;5.80;99.90;;;;;;5050046;28;20458;-46
2022/02/08 01:52:05;;;;;;;13.63;2.70;;;5.70;99.90;;;;;;5050362;28;20200;-46
2022/02/08 01:54:34;;;;;;;9.10;3.17;;;5.60;99.90;;;;;;5033776;28;20482;-46
2022/02/08 01:57:02;;;;;;;14.23;3.53;;;5.60;99.90;;;;;;5050273;28;20698;-45
2022/02/08 01:59:29;;;;;;;10.70;3.03;;;5.50;99.90;;;;;;5020510;28;21006;-45
2022/02/08 02:01:56;;;;;;;7.93;2.57;;;5.50;99.90;;;;;;5022631;28;20201;-46
2022/02/08 02:04:24;;;;;;;8.73;2.73;;;5.50;99.90;;;;;;5014007;28;20438;-45
2022/02/08 02:06:51;;;;;;;9.47;3.07;;;5.50;99.90;;;;;;5013875;28;20451;-45
2022/02/08 02:09:24;;;;;;;13.33;3.23;;;5.50;99.90;;;;;;5046486;28;20856;-45
2022/02/08 02:11:55;;;;;;;14.03;3.17;;;5.50;99.90;;;;;;5014371;28;20522;-46
2022/02/08 02:14:22;;;;;;;12.93;2.80;;;5.50;99.90;;;;;;5012930;28;20455;-45
2022/02/08 02:16:57;;;;;;;16.00;2.88;;;5.40;99.90;;;;;;5021853;28;20447;-45
2022/02/08 02:19:26;;;;;;;12.65;2.85;;;5.40;99.90;;;;;;5013737;28;20287;-45
2022/02/08 02:21:57;;;;;;;10.18;2.72;;;5.40;99.90;;;;;;5013783;28;20684;-45
2022/02/08 02:24:25;;;;;;;13.32;3.00;;;5.40;99.90;;;;;;5013902;28;20223;-45
2022/02/08 02:26:54;;;;;;;11.70;3.07;;;5.40;99.90;;;;;;5013656;28;20591;-45
2022/02/08 02:29:22;;;;;;;13.30;3.03;;;5.40;99.90;;;;;;5000007;28;20488;-46
2022/02/08 02:31:51;;;;;;;6.30;2.67;;;5.40;99.90;;;;;;5024901;28;20797;-45
2022/02/08 02:34:19;;;;;;;9.63;3.07;;;5.40;99.90;;;;;;5055934;28;20471;-45
2022/02/08 02:36:48;;;;;;;9.53;2.80;;;5.40;99.90;;;;;;5055009;28;20903;-45
2022/02/08 02:39:16;;;;;;;11.13;3.35;;;5.60;99.90;;;;;;5055344;28;20850;-45
2022/02/08 02:41:45;;;;;;;12.73;4.17;;;5.40;99.90;;;;;;5055163;28;20196;-45
2022/02/08 02:44:17;;;;;;;14.93;3.00;;;5.50;99.90;;;;;;5056227;28;20810;-45
2022/02/08 02:46:45;;;;;;;10.77;4.00;;;5.50;99.90;;;;;;5008298;28;20217;-45
2022/02/08 02:49:12;;;;;;;11.43;2.80;;;5.50;99.90;;;;;;5026219;28;21031;-45
2022/02/08 02:51:42;;;;;;;6.30;2.80;;;5.50;99.90;;;;;;5019097;28;20482;-45
2022/02/08 02:54:16;;;;;;;9.67;2.90;;;5.50;99.90;;;;;;5017190;28;20201;-44
2022/02/08 02:56:45;;;;;;;11.40;2.83;;;5.50;99.90;;;;;;5017030;28;20990;-45
2022/02/08 02:59:14;;;;;;;14.95;2.97;;;5.60;99.90;;;;;;5016606;28;20466;-46
2022/02/08 03:01:59;;;;;;;6.10;2.40;;;5.50;99.90;;;;;;5015840;28;20212;-44
2022/02/08 03:04:39;;;;;;;12.97;3.23;;;5.60;99.90;;;;;;5025148;28;20855;-46
2022/02/08 03:20:53;;;;;;;13.93;4.80;;;5.60;99.90;;;;;;5016512;28;20423;-45
2022/02/08 03:23:21;;;;;;;10.25;2.80;;;5.60;99.90;;;;;;5035523;28;20830;-45
2022/02/08 03:25:53;;;;;;;16.83;3.40;;;5.60;99.90;;;;;;5052721;28;20270;-45
2022/02/08 03:28:26;;;;;;;9.67;2.60;;;5.60;99.90;;;;;;5037902;28;20418;-45
2022/02/08 03:30:54;;;;;;;8.63;2.87;;;5.60;99.90;;;;;;5016231;28;20452;-45
2022/02/08 03:33:24;;;;;;;13.70;3.83;;;5.60;99.90;;;;;;5016218;28;20455;-46
2022/02/08 03:35:54;;;;;;;9.77;3.30;;;5.60;99.90;;;;;;5016017;28;21244;-46
2022/02/08 03:38:27;;;;;;;15.30;3.80;;;5.60;99.90;;;;;;5017775;28;20522;-47
2022/02/08 03:40:58;;;;;;;11.40;3.60;;;5.60;99.90;;;;;;5049277;28;20965;-46
2022/02/08 03:43:32;;;;;;;11.67;3.20;;;5.50;99.90;;;;;;5034697;28;20502;-46
2022/02/08 03:46:06;;;;;;;10.20;4.00;;;5.50;99.90;;;;;;5032256;28;20437;-45
2022/02/08 03:48:35;;;;;;;10.67;3.30;;;5.50;99.90;;;;;;5052839;28;21001;-46
2022/02/08 03:51:11;;;;;;;13.70;4.50;;;5.50;99.90;;;;;;5037004;28;20406;-46
2022/02/08 03:53:47;;;;;;;14.70;4.70;;;5.50;99.90;;;;;;5047767;28;20442;-45
2022/02/08 03:56:20;;;;;;;24.07;3.90;;;5.50;99.90;;;;;;5026642;28;20484;-46
2022/02/08 03:58:54;;;;;;;16.23;5.83;;;5.50;99.90;;;;;;5035920;28;20432;-45
2022/02/08 04:04:26;;;;;;;16.25;4.50;;;5.50;99.90;;;;;;5054585;28;20201;-46
2022/02/08 04:06:56;;;;;;;9.37;3.23;;;5.60;99.90;;;;;;5055461;28;20216;-46
2022/02/08 04:09:23;;;;;;;16.23;4.40;;;5.60;99.90;;;;;;5054753;28;20533;-46
2022/02/08 04:11:58;;;;;;;15.77;3.80;;;5.60;99.90;;;;;;5038146;28;20674;-45
2022/02/08 04:14:34;;;;;;;12.50;3.50;;;5.60;99.90;;;;;;5041485;28;20287;-45
2022/02/08 04:17:11;;;;;;;12.70;3.70;;;5.80;99.90;;;;;;5033243;28;20457;-46
2022/02/08 04:19:48;;;;;;;8.37;3.50;;;5.60;99.90;;;;;;5032961;28;20433;-46
2022/02/08 04:33:57;;;;;;;10.37;4.23;;;5.70;99.90;;;;;;4952610;28;20476;-46
2022/02/08 04:36:45;;;;;;;8.23;3.30;;;5.70;99.90;;;;;;5037418;28;20475;-46
2022/02/08 04:39:37;;;;;;;18.52;5.15;;;5.70;99.90;;;;;;5037671;28;20487;-46
2022/02/08 04:42:09;;;;;;;12.20;3.20;;;5.70;99.90;;;;;;5035766;28;20205;-46
2022/02/08 04:44:42;;;;;;;11.43;4.40;;;5.70;99.90;;;;;;5035546;28;20819;-45
2022/02/08 04:47:19;;;;;;;17.27;4.40;;;5.70;99.90;;;;;;5050778;28;20991;-46
2022/02/08 04:49:45;;;;;;;12.17;4.90;;;5.70;99.90;;;;;;5052765;28;20481;-45
2022/02/08 04:52:14;;;;;;;10.67;3.77;;;5.70;99.90;;;;;;5053550;28;20526;-45
2022/02/08 04:54:49;;;;;;;15.67;4.13;;;5.80;99.90;;;;;;5053338;28;20424;-47
2022/02/08 04:57:26;;;;;;;8.00;2.90;;;5.80;99.90;;;;;;5053795;28;20450;-46
2022/02/08 05:00:16;;;;;;;15.73;4.10;;;5.70;99.90;;;;;;5038420;28;20509;-46
2022/02/08 05:35:51;;;;;;;15.20;4.93;;;5.90;99.90;;;;;;5052129;28;20398;-46
2022/02/08 05:41:39;;;;;;;10.33;4.83;;;6.00;99.90;;;;;;5052412;28;20437;-47
2022/02/08 05:44:13;;;;;;;12.60;4.27;;;6.00;99.90;;;;;;5052405;28;20438;-45
2022/02/08 05:49:30;;;;;;;9.00;4.10;;;6.00;99.90;;;;;;5032526;28;20472;-46
2022/02/08 05:54:42;;;;;;;11.57;4.73;;;6.10;99.90;;;;;;5002212;28;20445;-46
2022/02/08 05:57:10;;;;;;;14.03;5.57;;;6.10;99.90;;;;;;5032467;28;20431;-45
2022/02/08 05:59:38;;;;;;;17.47;4.60;;;6.10;99.90;;;;;;5032265;28;20445;-46
2022/02/08 06:02:05;;;;;;;10.10;4.60;;;6.10;99.90;;;;;;5044081;28;20450;-46
2022/02/08 06:04:53;;;;;;;9.53;4.97;;;6.10;99.90;;;;;;5018098;28;20568;-47
2022/02/08 06:07:23;;;;;;;21.60;7.80;;;6.10;99.90;;;;;;5035550;28;20427;-47
2022/02/08 06:09:54;;;;;;;9.97;4.80;;;6.10;99.90;;;;;;5035871;28;20468;-46
2022/02/08 06:12:23;;;;;;;12.30;5.23;;;6.10;99.90;;;;;;5018406;28;20435;-47
2022/02/08 06:14:58;;;;;;;25.93;6.50;;;6.20;99.90;;;;;;5018138;28;20516;-46
2022/02/08 06:17:29;;;;;;;12.20;6.20;;;6.10;99.90;;;;;;5016669;28;20464;-45
2022/02/08 06:19:56;;;;;;;19.03;6.10;;;6.10;99.90;;;;;;5025915;28;20457;-45
2022/02/08 06:22:25;;;;;;;12.13;5.60;;;6.10;99.90;;;;;;5035539;28;20540;-48
2022/02/08 06:24:51;;;;;;;11.30;5.70;;;6.20;99.90;;;;;;5017789;28;20437;-46
2022/02/08 06:27:18;;;;;;;14.20;5.67;;;6.30;99.90;;;;;;5028976;28;20468;-45
2022/02/08 06:29:45;;;;;;;14.33;5.73;;;6.20;99.90;;;;;;5021791;28;20479;-45
2022/02/08 06:32:11;;;;;;;12.50;5.43;;;6.10;99.90;;;;;;5017319;28;20509;-47
2022/02/08 06:34:38;;;;;;;10.47;5.97;;;6.20;99.90;;;;;;5016232;28;20531;-47
2022/02/08 06:37:10;;;;;;;17.67;5.90;;;6.20;99.90;;;;;;5043805;28;20452;-46
2022/02/08 06:39:38;;;;;;;16.27;6.67;;;6.20;99.90;;;;;;5035130;28;20416;-46
2022/02/08 06:42:08;;;;;;;13.93;6.60;;;6.20;99.90;;;;;;5017928;28;20448;-47
2022/02/08 06:44:35;;;;;;;12.50;6.53;;;6.20;99.90;;;;;;5038038;28;20412;-46
2022/02/08 06:47:01;;;;;;;19.47;7.07;;;6.20;99.90;;;;;;5055036;28;20460;-48
2022/02/08 06:49:28;;;;;;;17.83;7.50;;;6.20;99.90;;;;;;5055040;28;20538;-46
2022/02/08 06:51:55;;;;;;;15.37;7.37;;;6.30;99.90;;;;;;5044520;28;20551;-47
2022/02/08 06:54:24;;;;;;;16.67;8.20;;;6.20;99.90;;;;;;5025848;28;20512;-47
2022/02/08 06:56:52;;;;;;;21.17;9.10;;;6.20;99.90;;;;;;5017725;28;20474;-45
2022/02/08 06:59:19;;;;;;;18.03;7.00;;;6.20;99.90;;;;;;5016775;28;20456;-45
2022/02/08 07:01:48;;;;;;;19.20;7.80;;;6.30;99.90;;;;;;5034973;28;20472;-46
2022/02/08 07:04:15;;;;;;;22.57;7.60;;;6.30;99.90;;;;;;5017064;28;20451;-46
2022/02/08 07:06:46;;;;;;;14.97;8.43;;;6.50;99.90;;;;;;5017197;28;20500;-46
2022/02/08 07:09:14;;;;;;;15.30;6.60;;;6.30;99.90;;;;;;5032902;28;20550;-46
2022/02/08 07:11:45;;;;;;;17.67;7.10;;;6.40;99.90;;;;;;5029289;28;20574;-45
2022/02/08 07:14:13;;;;;;;18.37;8.33;;;6.40;99.90;;;;;;5054507;28;20496;-45
2022/02/08 07:16:40;;;;;;;17.07;8.80;;;6.40;99.90;;;;;;5054866;28;20451;-44
2022/02/08 07:19:06;;;;;;;12.90;8.10;;;6.40;99.90;;;;;;5053817;28;20527;-47
2022/02/08 07:21:36;;;;;;;11.70;7.03;;;6.50;99.90;;;;;;5054073;28;20461;-45
2022/02/08 07:24:02;;;;;;;15.60;8.33;;;6.50;99.90;;;;;;5053350;28;20425;-45
2022/02/08 07:26:29;;;;;;;21.37;7.87;;;6.50;99.90;;;;;;5047994;28;20551;-46
2022/02/08 07:28:56;;;;;;;14.50;8.07;;;6.50;99.90;;;;;;5045733;28;20446;-46
2022/02/08 07:31:27;;;;;;;19.37;8.37;;;6.60;99.90;;;;;;4997225;28;20536;-45
2022/02/08 07:33:59;;;;;;;13.93;7.07;;;6.60;99.90;;;;;;4997113;28;20957;-45
2022/02/08 07:36:36;;;;;;;18.20;7.70;;;6.60;99.90;;;;;;5047480;22;20861;-49
2022/02/08 07:39:03;;;;;;;14.57;8.30;;;6.60;99.90;;;;;;5052680;28;20622;-49
2022/02/08 07:41:37;;;;;;;14.10;8.20;;;6.60;99.90;;;;;;5051575;28;20459;-49
2022/02/08 07:44:04;;;;;;;19.67;8.10;;;6.70;99.90;;;;;;5035233;28;20447;-49
2022/02/08 07:46:40;;;;;;;19.37;8.83;;;6.60;99.90;;;;;;5053261;28;20504;-48
2022/02/08 07:49:10;;;;;;;13.90;8.50;;;6.60;99.90;;;;;;5035222;28;20453;-48
2022/02/08 07:51:39;;;;;;;16.53;8.87;;;6.60;99.90;;;;;;5053672;28;20481;-48
2022/02/08 07:54:06;;;;;;;13.77;8.30;;;6.60;99.90;;;;;;5035898;28;20456;-49
2022/02/08 07:56:33;;;;;;;15.73;8.00;;;6.60;99.90;;;;;;5035393;28;20498;-49
2022/02/08 07:59:00;;;;;;;14.97;8.70;;;6.60;99.90;;;;;;5051531;28;20432;-49
2022/02/08 08:01:27;;;;;;;15.80;7.90;;;6.60;99.90;;;;;;5052639;28;20460;-48
2022/02/08 08:03:57;;;;;;;17.10;8.17;;;6.50;99.90;;;;;;5053519;28;20451;-48
2022/02/08 08:06:24;;;;;;;14.97;8.23;;;6.60;99.90;;;;;;5053205;28;20423;-48
2022/02/08 08:08:51;;;;;;;14.03;8.33;;;6.60;99.90;;;;;;5052818;28;20842;-49
2022/02/08 08:11:21;;;;;;;19.20;9.17;;;6.60;99.90;;;;;;5052393;28;20476;-50
2022/02/08 08:14:00;;;;;;;18.33;9.30;;;6.60;99.90;;;;;;5034078;28;20433;-50
2022/02/08 08:16:39;;;;;;;19.60;10.57;;;6.60;99.90;;;;;;5052293;28;20452;-50
2022/02/08 08:19:21;;;;;;;15.20;9.80;;;6.60;99.90;;;;;;5052241;28;20927;-48
2022/02/08 08:21:48;;;;;;;18.97;8.83;;;6.70;99.90;;;;;;5034411;28;20440;-49
2022/02/08 08:24:15;;;;;;;16.30;9.40;;;6.70;99.90;;;;;;5051678;28;20437;-49
2022/02/08 08:26:43;;;;;;;18.30;9.20;;;7.30;99.90;;;;;;5053229;28;20927;-48
2022/02/08 08:29:10;;;;;;;18.93;8.90;;;6.70;99.90;;;;;;5052057;28;20818;-48
2022/02/08 08:31:36;;;;;;;23.67;8.57;;;6.70;99.90;;;;;;5033241;28;20481;-49
2022/02/08 08:34:03;;;;;;;15.17;8.07;;;6.70;99.90;;;;;;5034770;28;20516;-49
2022/02/08 08:36:31;;;;;;;12.50;7.03;;;6.80;99.90;;;;;;5051751;28;20531;-49
2022/02/08 08:38:58;;;;;;;16.73;7.03;;;6.80;99.90;;;;;;5031524;28;20984;-49
2022/02/08 08:41:31;;;;;;;11.00;6.63;;;6.80;99.90;;;;;;5032294;28;20551;-49
2022/02/08 08:44:36;;;;;;;9.30;7.10;;;6.80;99.90;;;;;;5051735;28;20498;-49
2022/02/08 08:50:01;;;;;;;12.17;8.40;;;6.90;99.90;;;;;;5013931;28;20433;-48
2022/02/08 08:52:34;;;;;;;10.20;7.60;;;6.90;99.90;;;;;;5021860;28;20463;-49
2022/02/08 08:55:01;;;;;;;16.60;9.03;;;6.90;99.90;;;;;;5045506;28;20490;-49
2022/02/08 08:57:28;;;;;;;14.43;9.03;;;7.00;99.90;;;;;;5048276;28;20452;-48
2022/02/08 08:59:55;;;;;;;18.53;7.83;;;7.00;99.90;;;;;;5050849;28;20452;-49
2022/02/08 09:02:22;;;;;;;14.63;8.43;;;7.00;99.90;;;;;;5052482;28;20443;-49
2022/02/08 09:04:54;;;;;;;14.33;7.80;;;7.10;99.90;;;;;;5052228;28;20488;-48
2022/02/08 09:07:21;;;;;;;14.87;8.20;;;7.10;99.90;;;;;;5052177;28;20983;-48
2022/02/08 09:09:58;;;;;;;17.47;8.57;;;7.10;99.90;;;;;;5034020;28;20453;-49
2022/02/08 09:12:27;;;;;;;13.87;7.50;;;7.10;99.90;;;;;;5033570;28;20571;-50
2022/02/08 09:15:12;;;;;;;15.20;8.47;;;7.20;99.90;;;;;;5033215;28;20449;-48
2022/02/08 09:20:59;;;;;;;14.30;9.00;;;7.20;99.90;;;;;;5034151;28;20532;-48
2022/02/08 09:26:50;;;;;;;12.97;8.50;;;7.30;99.90;;;;;;5050214;28;21119;-48
2022/02/08 09:29:24;;;;;;;16.60;9.30;;;7.30;99.90;;;;;;5016185;28;20791;-50
2022/02/08 09:31:59;;;;;;;14.47;8.20;;;7.30;99.90;;;;;;5051888;28;20545;-50
2022/02/08 09:34:26;;;;;;;13.07;7.70;;;7.40;99.90;;;;;;5048770;28;20984;-48
2022/02/08 09:36:52;;;;;;;11.90;8.50;;;7.40;99.90;;;;;;5041374;28;20517;-49
2022/02/08 09:39:19;;;;;;;18.03;8.57;;;7.50;99.90;;;;;;5050569;28;20412;-48
2022/02/08 09:41:50;;;;;;;13.83;9.17;;;7.50;99.90;;;;;;5033250;28;20472;-49
2022/02/08 09:44:18;;;;;;;23.13;9.67;;;7.50;99.90;;;;;;5050734;28;20471;-49
2022/02/08 09:46:45;;;;;;;20.10;9.67;;;7.60;99.90;;;;;;5050842;28;20467;-50
2022/02/08 09:49:12;;;;;;;13.53;8.33;;;7.60;99.90;;;;;;5032811;28;20453;-49
2022/02/08 09:51:44;;;;;;;13.43;8.37;;;7.70;99.90;;;;;;5047692;28;20463;-49
2022/02/08 09:54:11;;;;;;;12.83;8.27;;;7.70;99.90;;;;;;5036015;28;20469;-50
2022/02/08 09:56:38;;;;;;;11.57;7.70;;;7.70;99.90;;;;;;5048853;28;20485;-50
2022/02/08 09:59:06;;;;;;;11.43;8.20;;;7.70;99.90;;;;;;5032080;28;20485;-50
2022/02/08 10:01:33;;;;;;;14.23;9.07;;;7.70;99.90;;;;;;5050740;28;20927;-51
2022/02/08 10:04:01;;;;;;;10.57;7.23;;;7.70;99.90;;;;;;5032849;28;20419;-49
2022/02/08 10:06:30;;;;;;;12.90;8.30;;;7.70;99.90;;;;;;5031723;28;20482;-49
2022/02/08 10:09:00;;;;;;;12.40;8.37;;;7.80;99.90;;;;;;5049445;28;20446;-50
2022/02/08 10:11:30;;;;;;;12.83;7.73;;;7.80;99.90;;;;;;5050810;28;20481;-50
2022/02/08 10:14:05;;;;;;;15.23;7.53;;;7.80;99.90;;;;;;5050927;28;20544;-49
2022/02/08 10:22:14;;;;;;;9.07;7.80;;;7.90;99.90;;;;;;5014384;28;20854;-50
2022/02/08 10:24:48;;;;;;;14.10;8.00;;;7.90;99.90;;;;;;5030836;28;20475;-50
2022/02/08 10:27:27;;;;;;;11.40;8.80;;;8.00;99.90;;;;;;5050067;28;20458;-49
2022/02/08 10:30:13;;;;;;;11.20;8.47;;;8.00;99.90;;;;;;5032176;28;20532;-50
2022/02/08 10:38:38;;;;;;;9.37;8.03;;;8.00;99.90;;;;;;5043008;28;20416;-50
2022/02/08 10:41:14;;;;;;;12.43;7.60;;;8.00;99.90;;;;;;5048569;28;20431;-49
2022/02/08 10:43:42;;;;;;;15.07;7.77;;;8.10;99.90;;;;;;5048989;28;20450;-50
2022/02/08 10:46:19;;;;;;;11.90;8.80;;;8.10;99.90;;;;;;5032928;28;20457;-50
2022/02/08 10:48:47;;;;;;;10.13;7.37;;;8.20;99.90;;;;;;5053617;28;20438;-50
2022/02/08 10:51:16;;;;;;;9.67;7.00;;;8.10;99.90;;;;;;5053945;28;20533;-50
2022/02/08 10:53:54;;;;;;;11.10;7.07;;;8.20;99.90;;;;;;5035706;28;20519;-50
2022/02/08 10:56:25;;;;;;;10.60;7.20;;;8.20;99.90;;;;;;5053692;28;20837;-49
2022/02/08 10:59:04;;;;;;;13.87;7.33;;;8.20;99.90;;;;;;5052451;28;20949;-50
2022/02/08 11:01:33;;;;;;;12.43;6.90;;;8.20;99.90;;;;;;5041004;28;20504;-50
2022/02/08 11:04:08;;;;;;;8.50;6.70;;;8.30;99.90;;;;;;5053125;28;20429;-50
2022/02/08 11:06:46;;;;;;;13.90;7.77;;;8.30;99.90;;;;;;5053102;28;20486;-50
2022/02/08 11:09:23;;;;;;;14.87;8.73;;;8.30;99.90;;;;;;5035299;28;20458;-49
2022/02/08 11:12:05;;;;;;;10.50;7.70;;;8.40;99.90;;;;;;5053525;28;20497;-49
2022/02/08 11:14:45;;;;;;;14.90;8.80;;;8.40;99.90;;;;;;5035466;28;20453;-49
2022/02/08 11:17:59;;;;;;;12.27;8.90;;;8.40;99.90;;;;;;5051751;28;20530;-49
2022/02/08 11:20:30;;;;;;;9.70;7.90;;;8.40;99.90;;;;;;5052080;28;20445;-50
2022/02/08 11:23:00;;;;;;;13.40;8.90;;;8.40;99.90;;;;;;5051990;28;20457;-49
2022/02/08 11:25:31;;;;;;;11.70;8.60;;;8.50;99.90;;;;;;5052765;28;20903;-49
2022/02/08 11:28:12;;;;;;;14.03;9.63;;;8.60;99.90;;;;;;5042208;28;20466;-50
2022/02/08 11:30:46;;;;;;;13.90;9.77;;;8.60;99.90;;;;;;5034781;28;20977;-49
2022/02/08 11:33:35;;;;;;;15.77;10.30;;;8.60;99.90;;;;;;5034832;28;20453;-49
2022/02/08 11:45:20;;;;;;;15.27;10.93;;;8.70;99.90;;;;;;5031272;28;20405;-49
2022/02/08 11:48:14;;;;;;;16.50;10.70;;;8.70;99.90;;;;;;5053195;28;20433;-50
2022/02/08 11:53:33;;;;;;;18.63;11.03;;;8.80;99.90;;;;;;5051172;28;20458;-50
2022/02/08 11:59:05;;;;;;;18.80;13.30;;;8.90;99.90;;;;;;5052597;28;20951;-50
2022/02/08 12:01:47;;;;;;;21.00;13.03;;;8.90;99.90;;;;;;5034133;28;20457;-49
2022/02/08 12:04:32;;;;;;;15.30;11.30;;;8.90;99.90;;;;;;5052458;28;20442;-51
2022/02/08 12:07:06;;;;;;;20.17;13.80;;;9.00;99.90;;;;;;5052725;28;20928;-51
2022/02/08 12:09:41;;;;;;;14.57;12.50;;;9.00;99.90;;;;;;5046904;28;20432;-51
2022/02/08 12:49:27;;;;;;;19.40;12.23;;;9.50;99.90;;;;;;5066691;28;20558;-47
2022/02/08 12:54:52;;;;;;;14.90;12.63;;;9.50;99.90;;;;;;5034514;28;20489;-44
2022/02/08 12:57:30;;;;;;;18.00;12.10;;;9.60;99.90;;;;;;5066517;28;20470;-45
2022/02/08 13:00:12;;;;;;;16.67;11.53;;;9.60;99.90;;;;;;5067529;28;20408;-46
2022/02/08 13:02:51;;;;;;;16.20;13.03;;;9.70;99.90;;;;;;5065195;28;21000;-48
2022/02/08 14:06:19;;;;;;;22.03;12.77;;;10.20;99.90;;;;;;5054191;28;21042;-47
2022/02/08 14:14:36;;;;;;;18.60;11.27;;;10.20;99.90;;;;;;5052725;28;20605;-46
2022/02/08 14:20:14;;;;;;;16.73;12.67;;;10.20;99.90;;;;;;5052643;28;20442;-47
2022/02/08 14:22:54;;;;;;;16.80;12.10;;;10.20;99.90;;;;;;5053474;28;20874;-48
2022/02/08 14:25:27;;;;;;;16.20;12.90;;;10.20;99.90;;;;;;5051881;28;20455;-45
2022/02/08 14:30:45;;;;;;;17.60;13.43;;;10.30;99.90;;;;;;5067438;28;20430;-47
2022/02/08 14:33:30;;;;;;;18.43;12.07;;;10.30;99.90;;;;;;5058851;28;20450;-46
2022/02/08 14:36:23;;;;;;;17.23;13.57;;;10.30;99.90;;;;;;5032616;28;20764;-45
2022/02/08 15:06:46;;;;;;;19.90;17.30;;;10.20;99.90;;;;;;5051925;28;20427;-46
2022/02/08 15:09:19;;;;;;;22.73;14.13;;;10.00;99.90;;;;;;5049585;28;20844;-46
2022/02/08 15:11:59;;;;;;;23.37;16.90;;;10.20;99.90;;;;;;5051845;28;20434;-45
2022/02/08 15:14:27;;;;;;;17.60;15.57;;;10.20;99.90;;;;;;5052004;28;20471;-45
2022/02/08 15:16:55;;;;;;;18.20;14.67;;;10.20;99.90;;;;;;5050410;28;20438;-45
2022/02/08 15:19:22;;;;;;;15.30;13.13;;;10.30;99.90;;;;;;5049882;28;20841;-46
2022/02/08 15:21:51;;;;;;;16.67;14.00;;;10.30;99.90;;;;;;5050577;28;20453;-46
2022/02/08 15:24:18;;;;;;;14.93;13.33;;;10.30;99.90;;;;;;5050920;28;20427;-46
2022/02/08 15:26:53;;;;;;;18.00;14.10;;;10.30;99.90;;;;;;5046667;28;20924;-46
2022/02/08 15:29:20;;;;;;;17.27;13.10;;;10.30;99.90;;;;;;5052680;28;20469;-46
2022/02/08 15:31:47;;;;;;;16.60;13.00;;;10.30;99.90;;;;;;5071775;28;20463;-45
2022/02/08 15:34:14;;;;;;;16.07;13.23;;;10.30;99.90;;;;;;5068251;28;20976;-45
2022/02/08 15:36:41;;;;;;;17.27;13.40;;;10.30;99.90;;;;;;5049702;28;20989;-46
2022/02/08 15:39:09;;;;;;;15.30;13.30;;;10.30;99.90;;;;;;5051217;28;20467;-46
2022/02/08 15:41:39;;;;;;;15.73;14.03;;;10.30;99.90;;;;;;5047423;28;20481;-45
2022/02/08 15:44:06;;;;;;;17.10;14.13;;;10.30;99.90;;;;;;5051229;28;20980;-45
2022/02/08 15:46:34;;;;;;;17.00;13.50;;;10.30;99.90;;;;;;5049983;28;20937;-45
2022/02/08 15:49:01;;;;;;;14.40;12.57;;;10.30;99.90;;;;;;5049436;28;20840;-46
2022/02/08 15:51:33;;;;;;;17.33;13.57;;;10.30;99.90;;;;;;5051452;28;20830;-47
2022/02/08 15:54:12;;;;;;;15.33;13.73;;;10.30;99.90;;;;;;5049670;28;20463;-45
2022/02/08 15:56:56;;;;;;;20.70;16.37;;;10.30;99.90;;;;;;5047369;28;20463;-45
2022/02/08 16:05:21;;;;;;;15.70;14.00;;;10.30;99.90;;;;;;5030005;28;20414;-46
2022/02/08 16:07:54;;;;;;;14.60;12.83;;;10.30;99.90;;;;;;5047370;28;20805;-45
2022/02/08 16:10:27;;;;;;;13.27;11.87;;;10.30;99.90;;;;;;5050595;28;20440;-46
2022/02/08 16:13:13;;;;;;;16.90;12.10;;;10.30;99.90;;;;;;5050987;28;20865;-46
2022/02/08 16:15:57;;;;;;;17.90;13.20;;;10.30;99.90;;;;;;5048536;28;20482;-47
2022/02/08 16:18:31;;;;;;;20.10;14.40;;;10.30;99.90;;;;;;5050822;28;20466;-45
2022/02/08 16:21:10;;;;;;;18.80;12.60;;;10.40;99.90;;;;;;5049440;28;20459;-44
2022/02/08 16:29:18;;;;;;;15.73;14.00;;;10.40;99.90;;;;;;5040473;28;20481;-46
2022/02/08 16:32:25;;;;;;;15.77;13.43;;;10.30;99.90;;;;;;5070722;28;20449;-45
2022/02/08 16:46:17;;;;;;;19.43;13.17;;;10.30;99.90;;;;;;5056249;28;20533;-46
2022/02/08 16:49:07;;;;;;;18.17;13.83;;;10.30;99.90;;;;;;5048906;28;20470;-46
2022/02/08 16:54:30;;;;;;;17.87;15.93;;;10.30;99.90;;;;;;5050771;28;20537;-46
2022/02/08 16:57:08;;;;;;;18.83;13.33;;;10.30;99.90;;;;;;5051302;28;21167;-47
2022/02/08 16:59:37;;;;;;;14.93;12.70;;;10.30;99.90;;;;;;5049348;28;20422;-45
2022/02/08 17:02:07;;;;;;;15.57;13.70;;;10.30;99.90;;;;;;5054232;28;20875;-46
2022/02/08 17:04:36;;;;;;;16.80;13.83;;;10.30;99.90;;;;;;5054718;28;20413;-47
2022/02/08 17:07:03;;;;;;;15.63;14.00;;;10.30;99.90;;;;;;5051228;28;20497;-47
2022/02/08 17:09:43;;;;;;;15.03;13.50;;;10.30;99.90;;;;;;5052555;28;20428;-45
2022/02/08 17:12:17;;;;;;;15.17;13.60;;;10.30;99.90;;;;;;5054268;28;20803;-45
2022/02/08 17:14:55;;;;;;;18.50;13.57;;;10.30;99.90;;;;;;5054518;28;20487;-46
2022/02/08 17:17:50;;;;;;;16.77;14.77;;;10.30;99.90;;;;;;5052613;28;20466;-46
2022/02/08 17:45:37;;;;;;;14.30;12.43;;;10.30;99.90;;;;;;5039403;28;21228;-46
2022/02/08 17:48:04;;;;;;;14.30;12.37;;;10.30;99.90;;;;;;5051647;28;20467;-45
2022/02/08 17:50:31;;;;;;;18.23;14.70;;;10.30;99.90;;;;;;5053410;28;20455;-46
2022/02/08 17:52:58;;;;;;;15.73;13.87;;;10.30;99.90;;;;;;5053883;28;20776;-46
2022/02/08 17:55:24;;;;;;;17.57;14.77;;;10.30;99.90;;;;;;5050361;28;20500;-46
2022/02/08 17:57:53;;;;;;;17.47;14.97;;;10.30;99.90;;;;;;5033252;28;20479;-46
2022/02/08 18:00:21;;;;;;;18.47;16.40;;;10.30;99.90;;;;;;5033382;28;20412;-46
2022/02/08 18:02:48;;;;;;;20.63;16.30;;;10.30;99.90;;;;;;5033687;28;20407;-46
2022/02/08 18:05:16;;;;;;;21.37;16.60;;;10.30;99.90;;;;;;5032131;28;20476;-46
2022/02/08 18:07:44;;;;;;;17.50;15.27;;;10.30;99.90;;;;;;5031971;28;20486;-46